Aneth, Utah
Current Conditions -  °F | °C
As of 12:35 PM on Tuesday 21 Oct 2014 (Local Time) from KBDG Reporting Station
Scattered Clouds Scattered Clouds  
Wind Chill: 63°   Ceiling: Unl
Heat Index: 63°   Visibility: 10mi
Dew Point: 43°   Wind: 8mph
Humidity: 48%   Direction: 150°SSE
Pressure: 30.19"   Gusts: NA
Location:  37.22°N, 109.19°W
Report Text: KBDG 211835Z AUTO 15007KT 10SM SCT095 17/06 A3019 RMK AO1 T01710060
Loading
Personal Weather Stations






























Interactive Weather Map New forecast layout! Learn more

10-Day Weather Forecast

Advertisements
Track Severe Weather on mobile